| time (UTC) | temp C | wind direction | speed KPH | gust KPH | rain 1hr cm | rain 24hr cm | rain mn cm | humidity % | barometer mb |
| 20260507191556 | 22 | 197 | 12.9 | 35.4 | 0.00 | 0.00 | 0.00 | 31 | 1011.7 |
| 20260507190053 | 21 | 162 | 16.1 | 35.4 | 0.00 | 0.00 | 0.00 | 32 | 1012.0 |
| 20260507184550 | 21 | 216 | 20.9 | 37.0 | 0.00 | 0.00 | 0.00 | 32 | 1012.3 |
| 20260507183047 | 21 | 242 | 16.1 | 30.6 | 0.00 | 0.00 | 0.00 | 35 | 1012.6 |
| 20260507181544 | 20 | 183 | 14.5 | 25.7 | 0.00 | 0.00 | 0.00 | 37 | 1012.9 |
| 20260507180041 | 20 | 255 | 14.5 | 25.7 | 0.00 | 0.00 | 0.00 | 40 | 1013.2 |
| 20260507174538 | 19 | 220 | 14.5 | 24.1 | 0.00 | 0.00 | 0.00 | 42 | 1013.5 |
| 20260507173042 | 18 | 140 | 12.9 | 27.4 | 0.00 | 0.00 | 0.00 | 42 | 1013.9 |
| 20260507171529 | 17 | 282 | 22.5 | 32.2 | 0.00 | 0.00 | 0.00 | 43 | 1014.4 |
| 20260507170028 | 17 | 147 | 16.1 | 27.4 | 0.00 | 0.00 | 0.00 | 44 | 1014.4 |
| 20260507164524 | 17 | 218 | 17.7 | 37.0 | 0.00 | 0.00 | 0.00 | 47 | 1014.8 |
| 20260507163020 | 16 | 257 | 19.3 | 35.4 | 0.00 | 0.00 | 0.00 | 48 | 1014.8 |
| 20260507161521 | 15 | 193 | 17.7 | 30.6 | 0.00 | 0.00 | 0.00 | 50 | 1015.1 |
| 20260507160013 | 15 | 225 | 19.3 | 32.2 | 0.00 | 0.00 | 0.00 | 50 | 1015.3 |
| 20260507154513 | 15 | 201 | 16.1 | 32.2 | 0.00 | 0.00 | 0.00 | 52 | 1015.4 |
| 20260507153008 | 14 | 218 | 16.1 | 35.4 | 0.00 | 0.00 | 0.00 | 55 | 1015.5 |
| 20260507151504 | 13 | 193 | 17.7 | 32.2 | 0.00 | 0.00 | 0.00 | 55 | 1016.0 |
| 20260507150100 | 13 | 229 | 16.1 | 33.8 | 0.00 | 0.00 | 0.00 | 58 | 1016.2 |
| 20260507144616 | 12 | 241 | 16.1 | 29.0 | 0.00 | 0.00 | 0.00 | 60 | 1016.3 |
| 20260507143055 | 12 | 269 | 9.7 | 24.1 | 0.00 | 0.00 | 0.00 | 64 | 1016.4 |
| 20260507141610 | 11 | 225 | 11.3 | 32.2 | 0.00 | 0.00 | 0.00 | 67 | 1016.4 |
| 20260507140045 | 11 | 237 | 14.5 | 29.0 | 0.00 | 0.00 | 0.00 | 69 | 1016.7 |
| 20260507134545 | 10 | 247 | 12.9 | 25.7 | 0.00 | 0.00 | 0.00 | 71 | 1016.9 |
| 20260507133040 | 10 | 216 | 17.7 | 25.7 | 0.00 | 0.00 | 0.00 | 75 | 1017.0 |
| 20260507131542 | 9 | 228 | 9.7 | 24.1 | 0.00 | 0.00 | 0.00 | 79 | 1017.1 |
| 20260507130037 | 8 | 249 | 9.7 | 22.5 | 0.00 | 0.00 | 0.00 | 81 | 1016.8 |
| 20260507124536 | 7 | 226 | 4.8 | 14.5 | 0.00 | 0.00 | 0.00 | 83 | 1016.9 |
| 20260507123036 | 7 | 222 | 8.0 | 16.1 | 0.00 | 0.00 | 0.00 | 84 | 1016.9 |
| 20260507121534 | 7 | 247 | 4.8 | 16.1 | 0.00 | 0.00 | 0.00 | 85 | 1016.9 |
| 20260507120033 | 6 | 228 | 4.8 | 12.9 | 0.00 | 0.00 | 0.00 | 85 | 1016.9 |
| 20260507114532 | 6 | 219 | 4.8 | 8.0 | 0.00 | 0.00 | 0.00 | 85 | 1017.0 |
| 20260507113030 | 6 | 216 | 3.2 | 8.0 | 0.00 | 0.00 | 0.00 | 85 | 1017.0 |
| 20260507111539 | 6 | 192 | 4.8 | 9.7 | 0.00 | 0.00 | 0.00 | 86 | 1017.0 |
| 20260507110026 | 6 | 235 | 1.6 | 4.8 | 0.00 | 0.00 | 0.00 | 85 | 1017.3 |
| 20260507104525 | 6 | 210 | 1.6 | 6.4 | 0.00 | 0.00 | 0.00 | 85 | 1017.3 |
| 20260507103022 | 6 | 210 | 4.8 | 9.7 | 0.00 | 0.00 | 0.00 | 85 | 1017.3 |
| 20260507101521 | 6 | 229 | 4.8 | 9.7 | 0.00 | 0.00 | 0.00 | 85 | 1017.4 |
| 20260507100019 | 7 | 223 | 6.4 | 9.7 | 0.00 | 0.00 | 0.00 | 84 | 1017.5 |
| 20260507094516 | 7 | 204 | 4.8 | 9.7 | 0.00 | 0.05 | 0.00 | 84 | 1017.5 |
| 20260507093020 | 7 | 193 | 3.2 | 8.0 | 0.00 | 0.05 | 0.00 | 84 | 1017.5 |
| 20260507091519 | 7 | 207 | 3.2 | 8.0 | 0.00 | 0.05 | 0.00 | 84 | 1017.5 |
| 20260507090017 | 7 | 208 | 4.8 | 8.0 | 0.00 | 0.05 | 0.00 | 84 | 1017.6 |
| 20260507084510 | 7 | 226 | 3.2 | 8.0 | 0.00 | 0.08 | 0.00 | 83 | 1017.7 |
| 20260507083008 | 7 | 199 | 1.6 | 6.4 | 0.00 | 0.08 | 0.00 | 83 | 1017.9 |
| 20260507081515 | 7 | 251 | 4.8 | 11.3 | 0.00 | 0.08 | 0.00 | 82 | 1018.1 |
| 20260507080003 | 7 | 253 | 3.2 | 11.3 | 0.00 | 0.08 | 0.00 | 81 | 1018.3 |
| 20260507074500 | 7 | 243 | 4.8 | 12.9 | 0.00 | 0.08 | 0.00 | 80 | 1018.4 |
| 20260507073103 | 8 | 201 | 1.6 | 8.0 | 0.00 | 0.08 | 0.00 | 78 | 1018.4 |
| 20260507071557 | 8 | 260 | 4.8 | 11.3 | 0.00 | 0.08 | 0.00 | 77 | 1018.6 |
| 20260507070059 | 8 | 249 | 4.8 | 11.3 | 0.00 | 0.08 | 0.00 | 76 | 1018.8 |
| 20260507064552 | 8 | 237 | 4.8 | 9.7 | 0.00 | 0.08 | 0.00 | 75 | 1018.8 |
| 20260507063052 | 8 | 241 | 3.2 | 8.0 | 0.00 | 0.08 | 0.00 | 75 | 1018.9 |
| 20260507061548 | 9 | 258 | 3.2 | 6.4 | 0.00 | 0.08 | 0.00 | 74 | 1018.9 |
| 20260507060056 | 9 | 254 | 3.2 | 8.0 | 0.00 | 0.08 | 0.00 | 73 | 1019.0 |
| 20260507054548 | 10 | 239 | 3.2 | 6.4 | 0.00 | 0.08 | 0.00 | 72 | 1019.1 |
| 20260507053042 | 10 | 235 | 4.8 | 11.3 | 0.00 | 0.08 | 0.00 | 70 | 1019.2 |
| 20260507051539 | 10 | 243 | 4.8 | 9.7 | 0.00 | 0.08 | 0.00 | 70 | 1019.2 |
| 20260507050037 | 10 | 263 | 3.2 | 6.4 | 0.00 | 0.08 | 0.00 | 69 | 1019.3 |
| 20260507044548 | 10 | 245 | 3.2 | 6.4 | 0.00 | 0.08 | 0.08 | 69 | 1019.3 |
| 20260507043035 | 10 | 196 | 3.2 | 6.4 | 0.00 | 0.08 | 0.08 | 68 | 1019.3 |
| 20260507041534 | 10 | 252 | 3.2 | 4.8 | 0.00 | 0.08 | 0.08 | 68 | 1019.3 |
| 20260507040036 | 10 | 209 | 3.2 | 6.4 | 0.00 | 0.08 | 0.08 | 67 | 1019.3 |
| 20260507034538 | 10 | 204 | 0.0 | 3.2 | 0.00 | 0.13 | 0.08 | 66 | 1019.3 |
| 20260507033035 | 10 | 204 | 1.6 | 4.8 | 0.00 | 0.13 | 0.08 | 66 | 1019.2 |
| 20260507031532 | 11 | 228 | 1.6 | 4.8 | 0.00 | 0.13 | 0.08 | 65 | 1019.4 |
| 20260507030031 | 11 | 228 | 1.6 | 4.8 | 0.00 | 0.13 | 0.08 | 62 | 1019.1 |
| 20260507024530 | 11 | 228 | 0.0 | 3.2 | 0.00 | 0.13 | 0.08 | 60 | 1018.9 |
| 20260507023030 | 11 | 228 | 1.6 | 8.0 | 0.00 | 0.13 | 0.08 | 59 | 1018.7 |
| 20260507021531 | 11 | 239 | 6.4 | 11.3 | 0.00 | 0.13 | 0.08 | 58 | 1019.0 |
| 20260507020040 | 11 | 262 | 3.2 | 6.4 | 0.00 | 0.13 | 0.08 | 58 | 1019.0 |
| 20260507014528 | 11 | 236 | 1.6 | 3.2 | 0.00 | 0.15 | 0.08 | 57 | 1018.6 |
| 20260507013030 | 12 | 236 | 1.6 | 4.8 | 0.00 | 0.15 | 0.08 | 56 | 1018.5 |
| 20260507011527 | 12 | 256 | 1.6 | 3.2 | 0.00 | 0.15 | 0.08 | 54 | 1018.4 |
| 20260507010029 | 13 | 249 | 3.2 | 6.4 | 0.00 | 0.15 | 0.08 | 51 | 1018.5 |
| 20260507004531 | 13 | 287 | 3.2 | 9.7 | 0.00 | 0.15 | 0.08 | 49 | 1018.4 |
| 20260507003028 | 13 | 239 | 1.6 | 6.4 | 0.00 | 0.15 | 0.08 | 50 | 1018.5 |
| 20260507001534 | 14 | 242 | 4.8 | 8.0 | 0.00 | 0.15 | 0.08 | 47 | 1018.5 |
| 20260507000023 | 15 | 293 | 3.2 | 8.0 | 0.00 | 0.15 | 0.08 | 44 | 1018.6 |
| 20260506234523 | 15 | 274 | 3.2 | 12.9 | 0.00 | 0.15 | 0.08 | 42 | 1018.6 |
| 20260506233020 | 15 | 273 | 8.0 | 16.1 | 0.00 | 0.15 | 0.08 | 44 | 1018.6 |
| 20260506231519 | 15 | 268 | 6.4 | 14.5 | 0.00 | 0.15 | 0.08 | 44 | 1018.6 |
| 20260506230017 | 15 | 278 | 8.0 | 16.1 | 0.00 | 0.15 | 0.08 | 43 | 1018.7 |
| 20260506224520 | 15 | 312 | 11.3 | 19.3 | 0.00 | 0.15 | 0.08 | 43 | 1018.7 |
| 20260506223017 | 15 | 281 | 3.2 | 16.1 | 0.00 | 0.15 | 0.08 | 43 | 1018.6 |
| 20260506221516 | 16 | 8 | 6.4 | 16.1 | 0.00 | 0.15 | 0.08 | 42 | 1018.7 |
| 20260506220015 | 15 | 27 | 6.4 | 19.3 | 0.00 | 0.15 | 0.08 | 43 | 1018.8 |
| 20260506214514 | 15 | 39 | 3.2 | 14.5 | 0.00 | 0.15 | 0.08 | 45 | 1018.9 |
| 20260506213014 | 15 | 359 | 3.2 | 12.9 | 0.00 | 0.15 | 0.08 | 42 | 1019.1 |
| 20260506211514 | 16 | 10 | 1.6 | 12.9 | 0.00 | 0.15 | 0.08 | 41 | 1019.2 |
| 20260506210017 | 15 | 302 | 4.8 | 12.9 | 0.00 | 0.15 | 0.08 | 42 | 1019.5 |
| 20260506204513 | 15 | 58 | 1.6 | 16.1 | 0.00 | 0.15 | 0.08 | 42 | 1019.7 |
| 20260506203010 | 15 | 340 | 3.2 | 6.4 | 0.00 | 0.15 | 0.08 | 41 | 1019.9 |
| 20260506201510 | 15 | 319 | 4.8 | 11.3 | 0.00 | 0.15 | 0.08 | 44 | 1020.1 |
| 20260506200008 | 14 | 359 | 4.8 | 14.5 | 0.00 | 0.15 | 0.08 | 45 | 1020.4 |
| 20260506194508 | 13 | 285 | 4.8 | 12.9 | 0.00 | 0.15 | 0.08 | 45 | 1020.5 |
| 20260506193007 | 14 | 337 | 1.6 | 8.0 | 0.00 | 0.15 | 0.08 | 43 | 1020.6 |